Time;durP1;ratioP1;P1;durP2;ratioP2;P2;SDS_P1;SDS_P2;PMS_P1;PMS_P2;Temp;Humidity;BMP_temperature;BMP_pressure;BME280_temperature;BME280_humidity;BME280_pressure;Samples;Min_cycle;Max_cycle;Signal;HPM_P1;HPM_P2
2023/05/04 00:01:52;;;;;;;;;7.33;5.67;;;;;16.76;47.66;101247.91;5097880;27;56866;-69
2023/05/04 00:04:19;;;;;;;;;8.00;5.67;;;;;16.21;47.67;101143.97;5092596;27;48380;-70
2023/05/04 00:06:44;;;;;;;;;9.67;7.67;;;;;16.71;47.62;101222.41;5080710;27;46171;-69
2023/05/04 00:09:12;;;;;;;;;6.00;5.00;;;;;16.69;47.82;101237.00;5080616;27;45379;-68
2023/05/04 00:11:37;;;;;;;;;6.33;5.00;;;;;16.49;47.96;101195.44;5098878;27;45275;-70
2023/05/04 00:14:03;;;;;;;;;8.00;8.00;;;;;16.28;48.00;101153.03;5081046;27;45855;-78
2023/05/04 00:16:28;;;;;;;;;8.67;5.67;;;;;15.82;48.00;101075.03;5098197;27;45358;-70
2023/05/04 00:18:53;;;;;;;;;5.33;5.33;;;;;16.51;48.16;101188.03;5098854;27;45549;-70
2023/05/04 00:21:19;;;;;;;;;5.00;5.00;;;;;16.31;48.37;101152.69;5080940;27;45423;-70
2023/05/04 00:23:44;;;;;;;;;6.00;6.00;;;;;16.51;48.53;101204.97;5097997;27;46090;-70
2023/05/04 00:26:09;;;;;;;;;6.67;4.33;;;;;16.44;48.69;101204.00;5098379;27;45231;-71
2023/05/04 00:28:35;;;;;;;;;8.33;5.33;;;;;16.42;48.68;101187.22;5098992;27;45558;-69
2023/05/04 00:31:00;;;;;;;;;8.00;7.67;;;;;16.46;48.80;101212.72;5099638;27;45376;-69
2023/05/04 00:33:26;;;;;;;;;10.33;7.33;;;;;16.35;49.06;101196.94;5098559;27;45918;-68
2023/05/04 00:35:51;;;;;;;;;9.00;7.00;;;;;16.22;48.96;101173.34;5080196;27;45357;-70
2023/05/04 00:38:18;;;;;;;;;8.33;5.67;;;;;16.29;49.67;101194.97;5098493;27;49038;-68
2023/05/04 00:40:43;;;;;;;;;7.33;5.33;;;;;16.12;49.58;101175.34;5098758;27;45654;-69
2023/05/04 00:43:08;;;;;;;;;10.67;9.00;;;;;16.23;49.67;101185.75;5079923;27;47289;-68
2023/05/04 00:45:34;;;;;;;;;7.00;7.00;;;;;15.85;49.66;101128.31;5098352;27;47385;-69
2023/05/04 00:48:00;;;;;;;;;9.67;9.33;;;;;16.24;50.11;101200.00;5102266;27;45609;-72
2023/05/04 00:50:26;;;;;;;;;9.33;9.33;;;;;16.17;50.04;101181.06;5119794;27;45418;-72
2023/05/04 00:52:55;;;;;;;;;7.00;7.00;;;;;15.61;50.17;101088.09;5119220;27;46987;-70
2023/05/04 00:55:21;;;;;;;;;9.00;6.67;;;;;15.31;50.29;101042.19;5118628;27;45248;-69
2023/05/04 00:57:48;;;;;;;;;9.00;7.67;;;;;15.95;50.88;101166.50;5118903;27;45356;-69
2023/05/04 01:00:14;;;;;;;;;10.67;9.67;;;;;15.70;51.06;101124.63;5119203;27;45442;-68
2023/05/04 01:02:40;;;;;;;;;10.00;10.00;;;;;15.97;50.79;101174.34;5101515;27;46429;-68
2023/05/04 01:05:06;;;;;;;;;11.67;7.67;;;;;16.04;50.65;101170.03;5118722;27;45368;-70
2023/05/04 01:07:40;;;;;;;;;9.00;9.00;;;;;15.25;50.84;101029.47;5118665;27;45315;-68
2023/05/04 01:10:22;;;;;;;;;8.00;8.00;;;;;15.90;50.63;101152.75;5119230;27;45424;-70
2023/05/04 01:13:03;;;;;;;;;10.67;8.33;;;;;16.01;50.91;101154.25;5118026;27;46875;-68
2023/05/04 01:15:29;;;;;;;;;9.33;8.33;;;;;15.91;51.35;101154.44;5118193;27;45517;-69
2023/05/04 01:17:54;;;;;;;;;10.67;6.00;;;;;15.09;51.23;101008.88;5118830;27;45433;-69
2023/05/04 01:20:20;;;;;;;;;9.00;9.00;;;;;15.97;51.10;101147.53;5095950;27;45367;-70
2023/05/04 01:22:45;;;;;;;;;8.67;8.67;;;;;15.79;51.53;101118.22;5118435;27;46382;-69
2023/05/04 01:25:10;;;;;;;;;7.00;7.00;;;;;15.33;51.51;101042.84;5099626;27;46547;-73
2023/05/04 01:28:08;;;;;;;;;7.67;7.67;;;;;15.77;51.73;101122.94;5118457;27;45351;-69
2023/05/04 01:30:42;;;;;;;;;12.00;11.00;;;;;15.91;51.56;101143.72;5099791;27;45201;-71
2023/05/04 01:33:08;;;;;;;;;10.33;9.67;;;;;15.93;51.50;101154.25;5119012;27;45837;-69
2023/05/04 01:35:34;;;;;;;;;9.00;9.00;;;;;15.84;51.65;101126.63;5118413;27;45564;-69
2023/05/04 01:38:01;;;;;;;;;12.00;8.00;;;;;15.87;51.53;101122.78;5118189;27;45441;-70
2023/05/04 01:40:26;;;;;;;;;8.00;8.00;;;;;15.93;51.88;101157.78;5104305;27;45489;-67
2023/05/04 01:42:51;;;;;;;;;8.33;8.33;;;;;15.18;51.71;101017.72;5097363;27;46679;-68
2023/05/04 01:45:17;;;;;;;;;10.00;10.00;;;;;15.84;52.10;101137.34;5097093;27;45326;-68
2023/05/04 01:47:43;;;;;;;;;12.33;9.67;;;;;15.79;52.25;101118.22;5097554;27;45278;-69
2023/05/04 01:50:08;;;;;;;;;14.00;10.67;;;;;15.76;52.21;101107.84;5097556;27;45172;-67
2023/05/04 01:52:33;;;;;;;;;7.00;7.00;;;;;15.77;52.40;101120.25;5096928;27;46611;-67
2023/05/04 01:54:59;;;;;;;;;8.33;8.33;;;;;15.78;52.05;101117.41;5095841;27;46639;-69
2023/05/04 01:57:24;;;;;;;;;9.67;9.00;;;;;15.60;52.19;101091.78;5096999;27;45307;-69
2023/05/04 01:59:49;;;;;;;;;8.00;7.67;;;;;15.83;52.59;101143.72;5099446;27;45605;-71
2023/05/04 02:02:15;;;;;;;;;9.00;8.33;;;;;15.76;53.11;101145.38;5098025;27;46476;-71
2023/05/04 02:04:40;;;;;;;;;10.00;9.33;;;;;15.63;52.83;101120.94;5098020;27;45311;-69
2023/05/04 02:07:07;;;;;;;;;9.00;6.33;;;;;15.73;52.86;101133.16;5097214;27;45843;-68
2023/05/04 02:09:32;;;;;;;;;9.33;9.33;;;;;15.13;53.00;101033.47;5096207;27;45273;-68
2023/05/04 02:11:58;;;;;;;;;11.00;10.33;;;;;15.68;53.25;101138.19;5097445;27;45472;-69
2023/05/04 02:14:23;;;;;;;;;8.67;8.67;;;;;15.65;53.34;101138.53;5097208;27;45454;-68
2023/05/04 02:16:48;;;;;;;;;12.00;11.67;;;;;15.25;53.31;101064.28;5096814;27;45789;-70
2023/05/04 02:19:14;;;;;;;;;13.00;11.00;;;;;15.65;52.96;101129.66;5079199;27;45383;-70
2023/05/04 02:21:42;;;;;;;;;10.33;7.00;;;;;15.55;53.11;101115.53;5096967;27;45627;-70
2023/05/04 02:24:08;;;;;;;;;11.33;9.33;;;;;15.59;53.16;101122.25;5098732;27;45416;-69
2023/05/04 02:26:34;;;;;;;;;9.67;8.00;;;;;15.20;53.27;101053.22;5100416;27;45465;-70
2023/05/04 02:29:02;;;;;;;;;10.00;10.00;;;;;15.60;53.61;101124.78;5082329;27;45251;-69
2023/05/04 02:31:27;;;;;;;;;6.00;6.00;;;;;15.28;53.36;101066.63;5100213;27;46909;-70
2023/05/04 02:33:53;;;;;;;;;9.00;8.00;;;;;15.51;53.30;101107.81;5100233;27;45320;-70
2023/05/04 02:36:18;;;;;;;;;11.00;8.67;;;;;15.55;53.95;101120.88;5112668;27;45205;-69
2023/05/04 02:38:43;;;;;;;;;11.67;10.67;;;;;14.88;53.59;101006.69;5100881;27;45594;-69
2023/05/04 02:41:09;;;;;;;;;10.33;10.00;;;;;15.47;53.81;101109.19;5099998;27;48039;-68
2023/05/04 02:43:34;;;;;;;;;10.67;9.00;;;;;15.06;54.00;101048.53;5100384;27;45228;-70
2023/05/04 02:45:59;;;;;;;;;13.00;11.67;;;;;15.40;54.30;101108.16;5099463;27;60373;-68
2023/05/04 02:48:25;;;;;;;;;10.33;10.33;;;;;15.39;54.15;101109.16;5100119;27;45603;-70
2023/05/04 02:50:50;;;;;;;;;11.33;9.33;;;;;15.15;53.85;101063.59;5099403;27;45698;-70
2023/05/04 02:53:16;;;;;;;;;11.00;9.33;;;;;14.19;54.44;100940.09;5100009;27;45375;-70
2023/05/04 02:55:41;;;;;;;;;10.33;8.33;;;;;15.38;54.29;101115.50;5081020;27;45262;-70
2023/05/04 02:58:06;;;;;;;;;11.67;10.00;;;;;15.16;54.15;101067.94;5100402;27;45462;-68
2023/05/04 03:00:32;;;;;;;;;10.00;7.67;;;;;14.43;53.88;100942.03;5081240;27;58981;-68
2023/05/04 03:02:57;;;;;;;;;12.00;10.67;;;;;15.12;53.99;101050.53;5099649;27;50125;-70
2023/05/04 03:05:23;;;;;;;;;10.33;8.33;;;;;15.23;53.94;101062.78;5099334;27;55905;-69
2023/05/04 03:07:49;;;;;;;;;8.33;8.33;;;;;15.10;54.24;101047.19;5100324;27;45312;-69
2023/05/04 03:10:14;;;;;;;;;14.67;12.67;;;;;15.33;54.48;101090.22;5081272;27;47843;-70
2023/05/04 03:12:40;;;;;;;;;13.00;12.67;;;;;15.20;54.63;101085.34;5099608;27;45435;-68
2023/05/04 03:15:06;;;;;;;;;11.33;11.33;;;;;14.85;54.92;101032.94;5099122;27;45812;-68
2023/05/04 03:17:31;;;;;;;;;12.67;11.00;;;;;15.14;55.17;101068.13;5081414;27;45598;-69
2023/05/04 03:19:56;;;;;;;;;10.67;10.67;;;;;14.76;55.13;101008.00;5081076;27;48030;-67
2023/05/04 03:22:22;;;;;;;;;11.00;11.00;;;;;15.17;55.00;101088.38;5101641;27;50468;-70
2023/05/04 03:24:47;;;;;;;;;13.67;13.67;;;;;15.12;55.02;101082.69;5099759;27;45218;-69
2023/05/04 03:27:12;;;;;;;;;14.33;12.00;;;;;15.08;55.12;101076.00;5098922;27;58173;-69
2023/05/04 03:29:38;;;;;;;;;12.33;12.00;;;;;14.73;55.00;101018.19;5080731;27;48884;-68
2023/05/04 03:32:03;;;;;;;;;12.67;12.67;;;;;15.02;55.13;101076.66;5099503;27;45258;-68
2023/05/04 03:34:29;;;;;;;;;12.33;12.33;;;;;14.90;55.51;101063.56;5099572;27;45220;-68
2023/05/04 03:36:54;;;;;;;;;12.33;11.00;;;;;14.72;55.19;101022.72;5099838;27;45540;-68
2023/05/04 03:39:19;;;;;;;;;18.33;13.00;;;;;14.97;55.57;101063.75;5088850;27;47630;-70
2023/05/04 03:41:45;;;;;;;;;15.33;11.67;;;;;14.39;55.86;100970.91;5119376;27;59546;-68
2023/05/04 03:44:10;;;;;;;;;12.00;12.00;;;;;14.73;55.83;101039.59;5121646;27;45800;-68
2023/05/04 03:46:35;;;;;;;;;17.33;14.67;;;;;14.72;55.72;101044.13;5122667;27;45471;-70
2023/05/04 03:49:01;;;;;;;;;11.67;11.00;;;;;14.72;55.56;101038.75;5119534;27;49148;-69
2023/05/04 03:51:26;;;;;;;;;13.67;13.67;;;;;14.95;55.68;101086.31;5119768;27;45626;-67
2023/05/04 03:53:51;;;;;;;;;12.00;10.67;;;;;14.85;56.04;101060.56;5119546;27;45348;-69
2023/05/04 03:56:17;;;;;;;;;13.67;13.67;;;;;14.74;55.68;101047.47;5119220;27;45287;-68
2023/05/04 03:58:42;;;;;;;;;15.00;11.00;;;;;14.95;55.93;101087.16;5119705;27;45770;-70
2023/05/04 04:01:07;;;;;;;;;11.00;11.00;;;;;14.94;55.58;101084.66;5100612;27;45907;-68
2023/05/04 04:03:35;;;;;;;;;16.00;15.00;;;;;14.72;55.89;101040.59;5118799;27;45190;-69
2023/05/04 04:06:02;;;;;;;;;13.00;12.00;;;;;14.81;56.05;101055.66;5099564;27;45779;-68
2023/05/04 04:08:28;;;;;;;;;18.67;17.00;;;;;14.82;55.88;101057.38;5087375;27;47433;-67
2023/05/04 04:10:53;;;;;;;;;14.33;14.33;;;;;14.82;56.59;101065.41;5098450;27;45839;-68
2023/05/04 04:13:18;;;;;;;;;15.00;13.67;;;;;14.07;56.00;100942.25;5108450;27;45986;-69
2023/05/04 04:15:45;;;;;;;;;15.67;14.33;;;;;14.54;55.81;101014.81;5100085;27;45327;-69
2023/05/04 04:18:10;;;;;;;;;12.00;12.00;;;;;14.89;55.93;101051.19;5118899;27;45635;-70
2023/05/04 04:20:36;;;;;;;;;14.67;14.67;;;;;14.87;55.94;101058.53;5118893;27;45303;-68
2023/05/04 04:23:02;;;;;;;;;13.33;13.33;;;;;14.82;56.00;101066.25;5119736;27;45377;-70
2023/05/04 04:25:28;;;;;;;;;14.67;12.67;;;;;14.85;56.22;101073.94;5119629;27;45485;-70
2023/05/04 04:27:53;;;;;;;;;15.33;15.33;;;;;14.80;56.60;101067.38;5119227;27;46586;-70
2023/05/04 04:30:19;;;;;;;;;15.33;13.33;;;;;14.70;56.59;101053.31;5092103;27;45655;-70
2023/05/04 04:32:44;;;;;;;;;14.00;13.00;;;;;14.55;56.51;101039.72;5108663;27;50341;-68
2023/05/04 04:35:10;;;;;;;;;18.00;14.67;;;;;14.72;56.64;101051.31;5118158;27;45535;-69
2023/05/04 04:37:35;;;;;;;;;11.00;11.00;;;;;14.46;56.38;101005.94;5098149;27;45865;-68
2023/05/04 04:40:00;;;;;;;;;16.67;16.67;;;;;14.70;56.38;101045.28;5098272;27;45271;-69
2023/05/04 04:42:26;;;;;;;;;13.33;13.33;;;;;13.94;55.96;100926.66;5100034;27;45557;-69
2023/05/04 04:44:52;;;;;;;;;18.33;14.00;;;;;14.71;56.53;101030.91;5098548;27;45273;-68
2023/05/04 04:47:17;;;;;;;;;17.00;13.00;;;;;14.44;56.36;100971.31;5097231;27;45620;-69
2023/05/04 04:49:43;;;;;;;;;13.67;12.33;;;;;14.76;55.99;101016.03;5079635;27;45267;-68
2023/05/04 04:52:08;;;;;;;;;13.00;12.00;;;;;14.66;55.83;101001.97;5097932;27;45296;-70
2023/05/04 04:54:34;;;;;;;;;15.00;15.00;;;;;14.17;56.02;100916.19;5097033;27;45540;-69
2023/05/04 04:56:59;;;;;;;;;13.67;12.33;;;;;14.89;56.10;101021.75;5096602;27;45785;-69
2023/05/04 04:59:25;;;;;;;;;14.00;13.67;;;;;14.28;56.14;100918.59;5096045;27;52532;-69
2023/05/04 05:01:50;;;;;;;;;15.00;13.67;;;;;14.49;56.01;100954.75;5096117;27;45550;-70
2023/05/04 05:04:18;;;;;;;;;16.67;11.67;;;;;14.45;55.90;100951.59;5096197;27;45320;-69
2023/05/04 05:06:44;;;;;;;;;15.33;15.00;;;;;14.89;56.17;101012.88;5096375;27;46416;-69
2023/05/04 05:09:09;;;;;;;;;11.67;10.67;;;;;14.88;56.30;101017.38;5096213;27;45966;-69
2023/05/04 05:11:34;;;;;;;;;15.67;14.00;;;;;14.88;56.38;101016.56;5096037;27;45301;-67
2023/05/04 05:14:00;;;;;;;;;17.00;16.00;;;;;14.54;55.88;100955.94;5078172;27;45515;-69
2023/05/04 05:16:25;;;;;;;;;17.67;15.33;;;;;13.59;56.04;100809.28;5096271;27;45523;-68
2023/05/04 05:18:51;;;;;;;;;13.67;13.67;;;;;14.73;56.30;100996.78;5077754;27;45535;-69
2023/05/04 05:21:16;;;;;;;;;15.33;13.67;;;;;14.72;56.38;100990.59;5096467;27;45452;-70
2023/05/04 05:23:41;;;;;;;;;14.33;12.67;;;;;14.82;56.11;100995.81;5096266;27;49197;-69
2023/05/04 05:26:07;;;;;;;;;14.67;10.33;;;;;14.87;56.27;101009.53;5095937;27;46549;-69
2023/05/04 05:28:32;;;;;;;;;15.33;15.33;;;;;14.86;56.06;101016.72;5096188;27;47623;-70
2023/05/04 05:30:58;;;;;;;;;17.00;15.33;;;;;14.80;56.35;101008.50;5096374;27;45288;-71
2023/05/04 05:33:23;;;;;;;;;16.33;14.67;;;;;14.83;56.18;101014.38;5099464;27;45423;-68
2023/05/04 05:35:49;;;;;;;;;15.00;14.00;;;;;14.60;56.30;100973.16;5098142;27;46224;-71
2023/05/04 05:38:16;;;;;;;;;13.33;13.33;;;;;14.16;56.59;100903.00;5095682;27;52497;-71
2023/05/04 05:40:42;;;;;;;;;15.00;13.33;;;;;14.47;56.26;100954.09;5078293;27;45485;-69
2023/05/04 05:43:07;;;;;;;;;14.33;14.33;;;;;14.86;56.49;101019.41;5096917;27;45376;-70
2023/05/04 05:45:32;;;;;;;;;16.67;15.00;;;;;14.86;56.47;101027.44;5095898;27;46186;-67
2023/05/04 05:47:58;;;;;;;;;14.00;12.67;;;;;14.76;56.24;101002.63;5095656;27;62995;-70
2023/05/04 05:50:23;;;;;;;;;15.67;15.00;;;;;15.00;56.05;101043.81;5077757;27;45389;-69
2023/05/04 05:52:49;;;;;;;;;14.33;14.33;;;;;14.87;55.76;101010.38;5057932;27;1092887;-69
2023/05/04 05:55:14;;;;;;;;;13.00;11.67;;;;;14.81;55.69;101000.28;5096893;27;46155;-67
2023/05/04 05:57:40;;;;;;;;;12.67;12.67;;;;;15.06;55.77;101043.19;5096554;27;58414;-68
2023/05/04 06:00:06;;;;;;;;;17.00;15.67;;;;;14.70;55.51;100987.25;5065576;27;45539;-71
2023/05/04 06:02:31;;;;;;;;;17.67;16.33;;;;;15.10;55.72;101041.84;5083246;27;45287;-71
2023/05/04 06:04:56;;;;;;;;;16.00;13.67;;;;;15.11;55.46;101040.84;5101041;27;46529;-70
2023/05/04 06:07:22;;;;;;;;;13.00;10.67;;;;;15.16;55.58;101051.88;5099493;27;46511;-69
2023/05/04 06:09:48;;;;;;;;;14.33;13.00;;;;;15.24;55.31;101035.00;5100821;27;45209;-69
2023/05/04 06:12:14;;;;;;;;;10.67;10.67;;;;;15.33;55.40;101042.84;5082187;27;45352;-70
2023/05/04 06:14:39;;;;;;;;;15.33;15.33;;;;;15.61;54.54;101024.59;5099368;27;46404;-70
2023/05/04 06:17:05;;;;;;;;;14.00;13.00;;;;;16.26;53.50;101011.03;5101066;27;45402;-69
2023/05/04 06:19:33;;;;;;;;;16.00;14.33;;;;;16.93;50.84;101003.28;5101410;27;45252;-70
2023/05/04 06:21:58;;;;;;;;;15.00;14.67;;;;;17.02;49.71;100899.31;5083093;27;45522;-69
2023/05/04 06:24:25;;;;;;;;;15.67;13.67;;;;;18.11;48.18;100956.94;5100928;27;46622;-71
2023/05/04 06:26:51;;;;;;;;;13.33;12.33;;;;;18.71;46.96;100953.06;5081993;27;46467;-68
2023/05/04 06:29:16;;;;;;;;;14.00;13.33;;;;;19.38;45.62;100963.41;5100698;27;45229;-69
2023/05/04 06:31:43;;;;;;;;;12.33;11.33;;;;;19.53;44.57;100957.91;5101011;27;45486;-67
2023/05/04 06:34:08;;;;;;;;;17.00;15.00;;;;;19.98;44.13;101002.41;5100320;27;46570;-69
2023/05/04 06:36:33;;;;;;;;;13.00;12.33;;;;;20.27;43.39;100971.63;5099857;27;56877;-69
2023/05/04 06:38:59;;;;;;;;;9.33;9.33;;;;;20.67;41.27;100912.34;5100479;27;45515;-70
2023/05/04 06:41:24;;;;;;;;;10.67;10.67;;;;;21.40;40.58;100956.44;5100408;27;45477;-69
2023/05/04 06:43:49;;;;;;;;;14.00;14.00;;;;;22.07;39.14;100979.66;5081445;27;46494;-69
2023/05/04 06:46:15;;;;;;;;;13.33;13.33;;;;;22.54;38.00;100977.56;5100614;27;45233;-70
2023/05/04 06:48:40;;;;;;;;;14.00;12.33;;;;;23.08;37.73;101003.31;5108725;27;45673;-69
2023/05/04 06:51:06;;;;;;;;;12.67;11.00;;;;;23.09;37.19;101004.97;5104308;27;45568;-70
2023/05/04 06:53:31;;;;;;;;;13.67;13.67;;;;;23.19;36.92;101000.72;5099743;27;46407;-71
2023/05/04 06:55:56;;;;;;;;;14.00;12.00;;;;;23.33;36.89;100961.59;5081525;27;45837;-68
2023/05/04 06:58:22;;;;;;;;;12.00;12.00;;;;;23.66;35.46;100984.91;5100413;27;45325;-68
2023/05/04 07:00:47;;;;;;;;;11.33;10.33;;;;;23.72;35.39;100978.56;5100552;27;45627;-69
2023/05/04 07:03:13;;;;;;;;;16.33;12.67;;;;;24.00;34.80;100947.34;5115634;27;47854;-70
2023/05/04 07:05:38;;;;;;;;;15.67;12.67;;;;;24.16;34.81;100972.00;5100887;27;45333;-70
2023/05/04 07:08:04;;;;;;;;;13.00;11.33;;;;;24.16;34.23;100979.31;5081596;27;45425;-70
2023/05/04 07:10:29;;;;;;;;;12.00;12.00;;;;;23.89;34.97;100919.91;5106353;27;45568;-73
2023/05/04 07:12:55;;;;;;;;;11.33;10.00;;;;;23.94;34.35;100963.50;5099850;27;45938;-69
2023/05/04 07:15:20;;;;;;;;;13.67;12.33;;;;;23.52;34.75;100872.06;5099492;27;45392;-70
2023/05/04 07:17:46;;;;;;;;;11.67;11.67;;;;;23.93;34.88;100904.81;5098914;27;45308;-71
2023/05/04 07:20:12;;;;;;;;;10.67;10.67;;;;;24.44;33.63;100955.16;5083167;27;45337;-69
2023/05/04 07:22:38;;;;;;;;;10.00;10.00;;;;;25.07;34.08;100968.25;5100269;27;46078;-70
2023/05/04 07:25:03;;;;;;;;;9.33;9.33;;;;;25.22;33.27;100973.22;5081279;27;45791;-69
2023/05/04 07:27:29;;;;;;;;;10.00;10.00;;;;;24.39;33.10;100869.94;5103675;27;45702;-70
2023/05/04 07:29:55;;;;;;;;;9.33;8.00;;;;;25.05;33.78;100973.13;5101086;27;45417;-70
2023/05/04 07:32:21;;;;;;;;;9.67;9.33;;;;;25.38;33.40;100979.88;5099452;27;45590;-71
2023/05/04 07:34:47;;;;;;;;;11.00;11.00;;;;;25.49;32.30;100940.94;5081104;27;45391;-71
2023/05/04 07:37:12;;;;;;;;;13.67;12.00;;;;;25.81;32.34;100997.78;5099568;27;45391;-71
2023/05/04 07:39:38;;;;;;;;;11.67;10.00;;;;;26.20;32.09;100968.91;5100061;27;45546;-70
2023/05/04 07:42:04;;;;;;;;;9.00;9.00;;;;;26.67;31.25;100989.53;5099702;27;45709;-71
2023/05/04 07:44:30;;;;;;;;;10.00;10.00;;;;;26.78;31.01;100990.50;5099094;27;45587;-69
2023/05/04 07:46:57;;;;;;;;;13.67;13.33;;;;;26.60;31.39;100958.81;5099105;27;45486;-70
2023/05/04 07:49:22;;;;;;;;;12.33;12.00;;;;;26.92;31.53;100975.50;5099410;27;45175;-70
2023/05/04 07:51:47;;;;;;;;;13.00;10.67;;;;;27.07;30.60;100966.78;5100518;27;45655;-73
2023/05/04 07:54:14;;;;;;;;;14.00;11.00;;;;;27.37;31.00;100985.53;5109909;27;47295;-68
2023/05/04 07:56:40;;;;;;;;;13.33;11.33;;;;;27.29;30.35;100983.25;5119051;27;45394;-70
2023/05/04 07:59:05;;;;;;;;;13.33;12.33;;;;;27.27;30.34;100985.41;5120880;27;45567;-72
2023/05/04 08:01:31;;;;;;;;;13.33;11.00;;;;;27.07;30.72;100966.78;5121157;27;46891;-71
2023/05/04 08:03:56;;;;;;;;;10.33;10.33;;;;;27.03;30.17;100975.69;5116258;27;45414;-71
2023/05/04 08:06:21;;;;;;;;;12.00;11.33;;;;;26.73;31.15;100971.34;5099013;27;45443;-71
2023/05/04 08:08:48;;;;;;;;;14.00;11.33;;;;;26.25;31.52;100937.16;5099817;27;45227;-70
2023/05/04 08:11:14;;;;;;;;;12.00;12.00;;;;;26.53;31.86;100979.97;5079984;27;47808;-71
2023/05/04 08:13:40;;;;;;;;;12.33;12.33;;;;;26.91;30.51;100943.84;5099909;27;45278;-69
2023/05/04 08:16:08;;;;;;;;;12.00;12.00;;;;;27.22;30.21;100956.09;5099397;27;45510;-69
2023/05/04 08:18:33;;;;;;;;;9.00;9.00;;;;;27.12;30.64;100960.56;5099937;27;46464;-71
2023/05/04 08:20:58;;;;;;;;;8.00;8.00;;;;;26.94;31.45;100983.44;5104650;27;46307;-69
2023/05/04 08:23:24;;;;;;;;;12.33;12.33;;;;;27.03;31.38;100992.91;5109544;27;45603;-70
2023/05/04 08:25:49;;;;;;;;;15.67;14.67;;;;;26.70;31.12;100916.47;5102221;27;45532;-71
2023/05/04 08:28:15;;;;;;;;;13.33;10.00;;;;;27.22;30.71;100960.72;5108982;27;45372;-73
2023/05/04 08:30:40;;;;;;;;;10.00;10.00;;;;;27.04;30.63;100892.78;5109874;27;46042;-70
2023/05/04 08:33:07;;;;;;;;;11.33;10.67;;;;;27.90;30.29;100978.69;5107855;27;45418;-71
2023/05/04 08:35:32;;;;;;;;;11.00;10.00;;;;;27.95;29.62;100943.22;5094967;27;45390;-71
2023/05/04 08:37:57;;;;;;;;;8.33;8.33;;;;;28.34;29.54;100956.84;5105043;27;45538;-71
2023/05/04 08:40:23;;;;;;;;;13.33;12.33;;;;;28.35;29.73;100969.44;5099927;27;51352;-71
2023/05/04 08:42:50;;;;;;;;;10.00;9.00;;;;;28.12;29.32;100932.22;5118946;27;45584;-71
2023/05/04 08:45:16;;;;;;;;;12.33;12.00;;;;;28.37;29.50;100935.28;5118164;27;45500;-72
2023/05/04 08:47:42;;;;;;;;;11.67;10.00;;;;;28.71;29.25;100941.38;5107144;27;45621;-72
2023/05/04 08:50:09;;;;;;;;;12.00;11.00;;;;;29.10;28.66;100943.91;5083510;27;47391;-71
2023/05/04 08:52:36;;;;;;;;;10.67;9.00;;;;;29.52;28.60;100956.84;5090016;27;45511;-70
2023/05/04 08:55:03;;;;;;;;;10.67;10.00;;;;;29.72;28.38;100953.41;5112207;27;45555;-75
2023/05/04 08:57:29;;;;;;;;;10.00;10.00;;;;;30.31;27.49;100948.47;5115138;27;45500;-70
2023/05/04 08:59:55;;;;;;;;;11.67;10.33;;;;;30.93;26.26;100939.25;5107653;27;45439;-73
2023/05/04 09:02:22;;;;;;;;;9.00;8.67;;;;;31.00;25.60;100868.38;5098391;27;45593;-70
2023/05/04 09:04:51;;;;;;;;;11.00;11.00;;;;;31.76;25.47;100936.94;5114112;27;45504;-68
2023/05/04 09:07:18;;;;;;;;;12.33;11.00;;;;;31.64;26.08;100943.84;5107452;27;45440;-71
2023/05/04 09:09:43;;;;;;;;;9.33;8.00;;;;;30.40;26.42;100900.19;5112605;27;45740;-70
2023/05/04 09:12:33;;;;;;;;;11.00;10.00;;;;;30.90;26.28;100915.09;5098639;27;45532;-80
2023/05/04 09:15:00;;;;;;;;;10.00;9.67;;;;;32.21;25.27;100943.34;5107245;27;45216;-71
2023/05/04 09:17:28;;;;;;;;;10.67;9.33;;;;;33.72;22.96;100933.34;5099785;27;45284;-70
2023/05/04 09:20:01;;;;;;;;;8.33;8.33;;;;;35.30;22.18;100931.84;5109823;27;46636;-70
2023/05/04 09:22:27;;;;;;;;;10.33;10.00;;;;;36.65;19.99;100925.69;5097669;27;45532;-69
2023/05/04 09:24:53;;;;;;;;;6.67;6.67;;;;;38.00;19.24;100912.34;5085630;27;45448;-72
2023/05/04 09:27:19;;;;;;;;;8.00;8.00;;;;;39.15;17.61;100908.09;5112217;27;45442;-71
2023/05/04 09:29:53;;;;;;;;;9.67;9.67;;;;;40.24;16.85;100922.09;5103571;27;45561;-71
2023/05/04 09:32:18;;;;;;;;;16.00;14.33;;;;;40.94;16.45;100870.16;5111285;27;45562;-73
2023/05/04 09:34:51;;;;;;;;;10.00;9.67;;;;;41.64;15.73;100920.31;5093005;27;45530;-72
2023/05/04 09:37:18;;;;;;;;;9.67;8.00;;;;;41.38;15.41;100900.34;5106531;27;45548;-71
2023/05/04 09:39:58;;;;;;;;;10.67;10.67;;;;;40.10;16.49;100875.03;5117208;27;45671;-73
2023/05/04 09:42:25;;;;;;;;;9.00;9.00;;;;;38.99;17.78;100930.00;5099721;27;45467;-72
2023/05/04 09:45:02;;;;;;;;;9.00;7.67;;;;;37.74;18.51;100918.66;5092723;27;45426;-70
2023/05/04 09:47:46;;;;;;;;;11.33;9.67;;;;;36.55;19.20;100921.19;5096978;27;45312;-72
2023/05/04 09:50:20;;;;;;;;;9.00;9.00;;;;;35.70;20.52;100924.72;5095224;27;46503;-72
2023/05/04 09:52:46;;;;;;;;;9.33;9.33;;;;;35.05;20.60;100922.06;5095615;27;45854;-71
2023/05/04 09:55:14;;;;;;;;;10.00;9.67;;;;;34.98;20.86;100916.91;5098950;27;45374;-71
2023/05/04 09:57:41;;;;;;;;;11.33;10.33;;;;;34.85;20.98;100916.91;5098343;27;45533;-70
2023/05/04 10:00:11;;;;;;;;;12.00;10.00;;;;;34.86;21.14;100913.84;5097467;27;48436;-70
2023/05/04 10:02:36;;;;;;;;;9.67;8.67;;;;;34.28;21.21;100869.16;5117900;27;45497;-71
2023/05/04 10:05:05;;;;;;;;;10.00;9.00;;;;;33.32;21.56;100756.28;5118998;27;45445;-71
2023/05/04 10:07:31;;;;;;;;;8.00;7.00;;;;;34.07;21.60;100893.47;5098688;27;45517;-71
2023/05/04 10:10:00;;;;;;;;;9.00;9.00;;;;;34.03;21.80;100922.75;5115943;27;46629;-70
2023/05/04 10:12:25;;;;;;;;;9.00;9.00;;;;;33.65;22.34;100916.34;5098988;27;45284;-70
2023/05/04 10:14:52;;;;;;;;;9.00;9.00;;;;;32.94;23.18;100902.13;5097354;27;45452;-71
2023/05/04 10:17:42;;;;;;;;;9.00;9.00;;;;;32.46;23.71;100911.31;5097422;27;45254;-72
2023/05/04 10:20:25;;;;;;;;;11.33;9.33;;;;;32.11;23.97;100913.16;5097749;27;47039;-69
2023/05/04 10:23:03;;;;;;;;;9.67;9.67;;;;;31.69;24.41;100910.84;5101519;27;45548;-70
2023/05/04 10:25:46;;;;;;;;;10.00;9.00;;;;;31.12;24.79;100890.06;5100024;27;45611;-74
2023/05/04 10:28:40;;;;;;;;;8.67;8.67;;;;;30.86;25.19;100908.50;5103677;27;45715;-68
2023/05/04 10:31:06;;;;;;;;;9.00;8.33;;;;;30.58;25.86;100912.56;5099043;27;47044;-70
2023/05/04 10:33:41;;;;;;;;;13.00;9.33;;;;;30.03;26.57;100902.25;5110809;27;45446;-71
2023/05/04 10:36:07;;;;;;;;;9.67;9.67;;;;;29.14;26.34;100791.72;5097975;27;45288;-71
2023/05/04 10:38:35;;;;;;;;;8.00;8.00;;;;;28.85;27.59;100782.22;5104355;27;45592;-72
2023/05/04 10:41:15;;;;;;;;;9.67;9.67;;;;;29.15;27.70;100880.16;5097589;27;48421;-73
2023/05/04 10:43:41;;;;;;;;;9.67;9.67;;;;;28.76;27.89;100875.75;5098588;27;45525;-71
2023/05/04 10:46:17;;;;;;;;;11.00;10.00;;;;;28.38;28.84;100821.25;5106998;27;45549;-72
2023/05/04 10:48:43;;;;;;;;;10.00;10.00;;;;;28.26;28.78;100835.09;5104004;27;45239;-70
2023/05/04 10:51:22;;;;;;;;;9.67;9.67;;;;;27.92;29.63;100837.16;5096832;27;45829;-71
2023/05/04 10:53:48;;;;;;;;;8.00;8.00;;;;;27.88;29.62;100849.69;5099991;27;45471;-71
2023/05/04 10:56:27;;;;;;;;;8.67;8.67;;;;;27.79;29.29;100862.16;5111820;27;45408;-71
2023/05/04 10:58:53;;;;;;;;;8.00;8.00;;;;;27.91;29.67;100884.72;5107797;27;45912;-69
2023/05/04 11:01:20;;;;;;;;;9.33;8.67;;;;;27.57;29.78;100887.53;5113406;27;45608;-71
2023/05/04 11:03:47;;;;;;;;;11.33;9.67;;;;;27.18;30.23;100866.78;5082437;27;45410;-72
2023/05/04 11:06:21;;;;;;;;;10.67;9.33;;;;;27.23;30.60;100900.44;5099748;27;45429;-70
2023/05/04 11:08:57;;;;;;;;;8.00;7.00;;;;;26.71;30.29;100828.09;5079570;27;45517;-71
2023/05/04 11:11:23;;;;;;;;;8.00;7.00;;;;;27.06;31.12;100901.53;5109056;27;46267;-71
2023/05/04 11:13:48;;;;;;;;;10.00;10.00;;;;;26.83;30.93;100891.56;5092376;27;45423;-70